ADDS METAR Data INFO
IDs: Format: Raw Decoded Include TAF

Data at: 1119 UTC 21 Feb 2018

PAZK 201456Z AUTO 05003KT 10SM -SN OVC065 M13/M14 A3019 RMK AO2 SNB11E23B54 SLP312 P0000 60000 T11331144 53002 FZRANO
PAZK 201356Z AUTO VRB04KT 10SM SCT100 M14/M16 A3018 RMK AO2 SNB22E35 SLP308 P0000 T11391156 FZRANO
PAZK 201329Z AUTO 36006KT 8SM -SN SCT002 M14/M16 A3018 RMK AO2 SNB22 P0000 FZRANO
PAZK 201303Z AUTO 00000KT 10SM BKN002 OVC120 M13/M15 A3018 RMK AO2 FZRANO
PAZK 201256Z AUTO 00000KT 10SM SCT002 OVC120 M14/M15 A3018 RMK AO2 SNB24E37 SLP304 P0000 T11391150 FZRANO
PAZK 201211Z AUTO 00000KT 10SM FEW002 M14/M15 A3018 RMK AO2 FZRANO
PAZK 201156Z AUTO 00000KT 10SM BKN002 M14/M16 A3018 RMK AO2 SLP304 60000 T11391156 11139 21161 56001 FZRANO
PAZK 201056Z AUTO 00000KT 10SM OVC002 M15/M17 A3018 RMK AO2 SLP306 T11501167 FZRANO
PAZK 201043Z AUTO 00000KT 7SM OVC002 M15/M17 A3018 RMK AO2 FZRANO
PAZK 201015Z AUTO 00000KT 1SM BR OVC004 M15/M17 A3018 RMK AO2 FZRANO
PAZK 200956Z AUTO 00000KT 1/2SM FZFG OVC004 M15/M17 A3018 RMK AO2 SNE02 SLP307 P0000 T11501167 FZRANO
PAZK 200942Z AUTO 00000KT 3/4SM BR OVC004 M15/M17 A3019 RMK AO2 SNE02 P0000 FZRANO
PAZK 200908Z AUTO 00000KT 1/2SM FZFG OVC004 M15/M17 A3020 RMK AO2 SNE02 P0000 FZRANO
PAZK 200856Z AUTO 00000KT 3/4SM -SN BR OVC004 M15/M17 A3021 RMK AO2 SLP318 P0000 60000 T11501167 410831161 50001 FZRANO
PAZK 200842Z AUTO 01004KT 3/4SM BR OVC004 M16/M17 A3022 RMK AO2 SNE33 P0000 FZRANO
PAZK 200756Z AUTO 02003KT 1 1/4SM -SN BR OVC004 M16/M18 A3022 RMK AO2 SNB05 SLP325 P0000 T11611178 FZRANO
PAZK 200744Z AUTO 01003KT 1 1/2SM -SN BR OVC004 M16/M17 A3022 RMK AO2 SNB05 P0000 FZRANO
PAZK 200730Z AUTO 01003KT 2 1/2SM -SN BR OVC004 M15/M17 A3022 RMK AO2 VIS 1 1/2V5 SNB05 P0000 FZRANO
PAZK 200723Z AUTO 01003KT 1 3/4SM -SN BR BKN004 M15/M17 A3022 RMK AO2 SNB05 P0000 FZRANO
PAZK 200716Z AUTO 00000KT 1SM -SN BR BKN004 M15/M17 A3023 RMK AO2 SNB05 P0000 FZRANO
PAZK 200706Z AUTO 36003KT 1/2SM -SN FZFG VV004 M16/M17 A3022 RMK AO2 SNB05 P0000 FZRANO
PAZK 200656Z AUTO 36003KT 3/4SM BR VV002 M15/M17 A3023 RMK AO2 SLP323 T11501167 FZRANO
PAZK 200653Z AUTO 01003KT 1SM BR VV002 M15/M16 A3023 RMK AO2 FZRANO
PAZK 200649Z AUTO 01003KT 2SM BR SCT002 M15/M16 A3022 RMK AO2 FZRANO
PAZK 200556Z AUTO 35003KT 10SM BKN002 M16/M17 A3021 RMK AO2 SLP316 T11561167 11089 21156 53003 FZRANO
PAZK 200554Z AUTO 35003KT 10SM SCT002 M16/M17 A3021 RMK AO2 FZRANO
PAZK 200456Z AUTO 04008KT 10SM CLR M14/M15 A3019 RMK AO2 SLP309 T11391150 FZRANO
PAZK 200356Z AUTO 03006KT 10SM CLR M14/M15 A3020 RMK AO2 SLP314 T11391150 FZRANO
PAZK 200256Z AUTO 00000KT 10SM CLR M14/M15 A3022 RMK AO2 SLP318 T11391150 58001 FZRANO
PAZK 200156Z AUTO 04004KT 10SM CLR M13/M14 A3023 RMK AO2 SLP321 T11281144 FZRANO
PAZK 200056Z AUTO 03005KT 10SM CLR M10/M13 A3022 RMK AO2 SLP315 T11001133 FZRANO
PAZK 192356Z AUTO 01007KT 10SM CLR M09/M12 A3022 RMK AO2 SLP311 T10941122 11083 21106 58005 FZRANO